createdAt,value
2023-05-05T00:01:10.679Z,60.04
2023-05-05T00:03:37.628Z,60.23
2023-05-05T00:06:05.646Z,60.27
2023-05-05T00:08:32.388Z,60.27
2023-05-05T00:10:58.983Z,60.07
2023-05-05T00:13:25.623Z,60.53
2023-05-05T00:15:53.637Z,60.19
2023-05-05T00:18:21.347Z,60.28
2023-05-05T00:20:48.448Z,60.16
2023-05-05T00:23:16.052Z,60.63
2023-05-05T00:25:42.651Z,60.52
2023-05-05T00:28:10.580Z,60.50
2023-05-05T00:30:38.121Z,60.49
2023-05-05T00:33:04.812Z,60.42
2023-05-05T00:35:31.447Z,60.55
2023-05-05T00:37:58.172Z,60.24
2023-05-05T00:40:25.348Z,60.66
2023-05-05T00:42:52.426Z,60.52
2023-05-05T00:45:19.885Z,60.48
2023-05-05T00:47:48.699Z,60.34
2023-05-05T00:50:25.532Z,60.55
2023-05-05T00:52:54.416Z,60.24
2023-05-05T00:55:22.556Z,60.31
2023-05-05T00:57:49.498Z,60.35
2023-05-05T01:00:16.819Z,60.27
2023-05-05T01:02:44.138Z,60.24
2023-05-05T01:05:11.251Z,60.14
2023-05-05T01:07:43.869Z,60.49
2023-05-05T01:10:20.872Z,60.14
2023-05-05T01:13:12.253Z,60.28
2023-05-05T01:15:45.303Z,60.17
2023-05-05T01:18:16.901Z,60.22
2023-05-05T01:20:50.367Z,60.10
2023-05-05T01:23:29.669Z,60.01
2023-05-05T01:25:59.223Z,60.14
2023-05-05T01:29:22.939Z,60.01
2023-05-05T01:31:57.742Z,60.17
2023-05-05T01:34:42.086Z,60.32
2023-05-05T01:37:19.849Z,60.13
2023-05-05T01:39:50.327Z,60.28
2023-05-05T01:42:18.645Z,60.02
2023-05-05T01:44:45.814Z,60.00
2023-05-05T01:47:15.077Z,60.01
2023-05-05T01:49:44.466Z,59.98
2023-05-05T01:52:11.551Z,60.00
2023-05-05T01:54:39.360Z,60.18
2023-05-05T01:57:07.632Z,60.15
2023-05-05T01:59:34.390Z,59.95
2023-05-05T02:02:02.123Z,60.31
2023-05-05T02:04:31.118Z,60.01
2023-05-05T02:06:58.603Z,59.98
2023-05-05T02:09:26.034Z,60.27
2023-05-05T02:11:53.105Z,60.25
2023-05-05T02:14:20.639Z,60.02
2023-05-05T02:16:47.276Z,59.93
2023-05-05T02:19:14.949Z,60.20
2023-05-05T02:21:41.965Z,59.81
2023-05-05T02:24:08.820Z,60.12
2023-05-05T02:26:38.932Z,60.10
2023-05-05T02:29:33.112Z,59.86
2023-05-05T02:32:04.388Z,60.20
2023-05-05T02:34:35.526Z,60.26
2023-05-05T02:37:08.325Z,60.17
2023-05-05T02:39:59.082Z,59.87
2023-05-05T02:42:30.162Z,60.01
2023-05-05T02:44:59.031Z,60.21
2023-05-05T02:47:36.064Z,59.97
2023-05-05T02:50:03.961Z,59.78
2023-05-05T02:52:30.538Z,59.88
2023-05-05T02:54:57.388Z,60.17
2023-05-05T02:57:29.163Z,60.16
2023-05-05T03:00:10.723Z,59.73
2023-05-05T03:03:17.774Z,60.08
2023-05-05T03:06:07.724Z,59.96
2023-05-05T03:08:42.141Z,59.72
2023-05-05T03:11:16.869Z,59.72
2023-05-05T03:13:44.227Z,59.77
2023-05-05T03:16:11.795Z,59.72
2023-05-05T03:18:38.643Z,59.81
2023-05-05T03:21:08.889Z,60.10
2023-05-05T03:23:36.546Z,59.72
2023-05-05T03:26:03.103Z,59.89
2023-05-05T03:28:29.715Z,59.81
2023-05-05T03:30:56.388Z,60.06
2023-05-05T03:33:22.852Z,59.97
2023-05-05T03:35:49.362Z,59.79
2023-05-05T03:38:15.889Z,60.05
2023-05-05T03:40:44.666Z,59.77
2023-05-05T03:43:11.774Z,59.82
2023-05-05T03:45:38.462Z,59.95
2023-05-05T03:48:05.577Z,59.73
2023-05-05T03:50:32.205Z,59.98
2023-05-05T03:52:58.755Z,59.95
2023-05-05T03:55:25.862Z,60.08
2023-05-05T03:57:52.466Z,59.97
2023-05-05T04:00:19.389Z,59.82
2023-05-05T04:02:46.085Z,60.01
2023-05-05T04:05:12.645Z,60.18
2023-05-05T04:07:39.160Z,60.07
2023-05-05T04:10:06.884Z,60.02
2023-05-05T04:12:33.721Z,60.02
2023-05-05T04:15:00.356Z,60.04
2023-05-05T04:17:27.013Z,60.11
2023-05-05T04:19:53.573Z,60.12
2023-05-05T04:22:20.126Z,59.91
2023-05-05T04:24:47.276Z,60.41
2023-05-05T04:27:13.837Z,59.86
2023-05-05T04:29:40.692Z,60.03
2023-05-05T04:32:07.300Z,59.83
2023-05-05T04:34:33.829Z,59.94
2023-05-05T04:37:00.368Z,60.15
2023-05-05T04:39:27.194Z,59.84
2023-05-05T04:41:53.681Z,59.94
2023-05-05T04:44:20.295Z,59.93
2023-05-05T04:46:47.086Z,59.95
2023-05-05T04:49:13.670Z,59.54
2023-05-05T04:51:43.354Z,59.55
2023-05-05T04:54:10.017Z,59.42
2023-05-05T04:56:37.211Z,59.69
2023-05-05T04:59:03.897Z,59.33
2023-05-05T05:01:30.620Z,59.46
2023-05-05T05:03:57.328Z,59.21
2023-05-05T05:06:24.144Z,59.50
2023-05-05T05:08:50.614Z,59.21
2023-05-05T05:11:17.125Z,59.36
2023-05-05T05:13:43.739Z,59.13
2023-05-05T05:16:10.510Z,59.22
2023-05-05T05:18:37.082Z,59.03
2023-05-05T05:21:03.792Z,59.25
2023-05-05T05:23:30.824Z,59.34
2023-05-05T05:25:57.512Z,58.91
2023-05-05T05:28:24.219Z,59.34
2023-05-05T05:30:52.100Z,59.13
2023-05-05T05:33:18.942Z,59.24
2023-05-05T05:35:45.972Z,59.02
2023-05-05T05:38:12.540Z,59.05
2023-05-05T05:40:39.198Z,59.19
2023-05-05T05:43:05.793Z,59.13
2023-05-05T05:45:32.339Z,59.20
2023-05-05T05:47:58.992Z,58.94
2023-05-05T05:50:28.513Z,58.80
2023-05-05T05:52:55.555Z,58.51
2023-05-05T05:55:22.113Z,58.44
2023-05-05T05:57:48.858Z,58.54
2023-05-05T06:00:18.576Z,58.20
2023-05-05T06:02:45.947Z,58.31
2023-05-05T06:05:13.114Z,58.10
2023-05-05T06:07:39.733Z,58.22
2023-05-05T06:10:19.016Z,58.03
2023-05-05T06:12:52.893Z,57.78
2023-05-05T06:15:19.516Z,57.49
2023-05-05T06:17:46.147Z,57.79
2023-05-05T06:20:13.934Z,57.68
2023-05-05T06:22:40.674Z,57.46
2023-05-05T06:25:07.770Z,57.31
2023-05-05T06:27:35.407Z,57.23
2023-05-05T06:30:01.937Z,57.15
2023-05-05T06:32:28.449Z,57.17
2023-05-05T06:34:54.958Z,57.12
2023-05-05T06:37:21.500Z,57.01
2023-05-05T06:39:49.182Z,56.59
2023-05-05T06:42:15.693Z,56.55
2023-05-05T06:44:42.171Z,56.51
2023-05-05T06:47:08.779Z,56.51
2023-05-05T06:49:35.396Z,56.44
2023-05-05T06:52:02.066Z,56.34
2023-05-05T06:54:28.650Z,56.53
2023-05-05T06:56:56.183Z,56.28
2023-05-05T06:59:23.592Z,56.17
2023-05-05T07:01:50.938Z,56.12
2023-05-05T07:04:17.495Z,56.27
2023-05-05T07:06:44.956Z,56.22
2023-05-05T07:09:11.602Z,56.16
2023-05-05T07:11:38.513Z,56.14
2023-05-05T07:14:05.115Z,56.27
2023-05-05T07:16:34.697Z,56.18
2023-05-05T07:19:01.606Z,56.20
2023-05-05T07:21:28.170Z,56.26
2023-05-05T07:23:54.711Z,56.35
2023-05-05T07:26:21.445Z,56.38
2023-05-05T07:28:48.173Z,56.48
2023-05-05T07:31:14.724Z,56.44
2023-05-05T07:33:41.406Z,56.42
2023-05-05T07:36:08.305Z,56.52
2023-05-05T07:38:34.803Z,56.74
2023-05-05T07:41:01.454Z,56.49
2023-05-05T07:43:28.102Z,56.42
2023-05-05T07:45:54.796Z,56.36
2023-05-05T07:48:21.393Z,56.34
2023-05-05T07:50:47.848Z,56.27
2023-05-05T07:53:15.239Z,56.06
2023-05-05T07:55:42.319Z,56.11
2023-05-05T07:58:10.935Z,56.26
2023-05-05T08:00:38.436Z,56.18
2023-05-05T08:03:05.174Z,56.14
2023-05-05T08:05:31.761Z,56.19
2023-05-05T08:07:58.394Z,56.07
2023-05-05T08:10:25.018Z,56.28
2023-05-05T08:12:51.562Z,56.07
2023-05-05T08:15:18.204Z,56.01
2023-05-05T08:17:49.248Z,55.93
2023-05-05T08:20:17.313Z,56.18
2023-05-05T08:22:44.019Z,55.91
2023-05-05T08:25:13.994Z,55.99
2023-05-05T08:27:42.339Z,55.83
2023-05-05T08:30:09.472Z,55.84
2023-05-05T08:32:36.292Z,56.03
2023-05-05T08:35:03.432Z,55.91
2023-05-05T08:37:30.056Z,55.93
2023-05-05T08:39:57.777Z,55.72
2023-05-05T08:42:36.402Z,55.69
2023-05-05T08:45:05.899Z,55.86
2023-05-05T08:47:32.903Z,55.71
2023-05-05T08:49:59.482Z,55.84
2023-05-05T08:52:29.818Z,55.71
2023-05-05T08:55:07.935Z,55.83
2023-05-05T08:57:44.663Z,55.78
2023-05-05T09:00:13.221Z,55.67
2023-05-05T09:02:40.858Z,55.40
2023-05-05T09:05:08.162Z,55.59
2023-05-05T09:07:34.907Z,55.59
2023-05-05T09:10:04.522Z,55.39
2023-05-05T09:12:31.876Z,55.36
2023-05-05T09:14:59.415Z,55.39
2023-05-05T09:17:26.866Z,55.49
2023-05-05T09:20:04.717Z,55.29
2023-05-05T09:22:53.367Z,55.13
2023-05-05T09:25:20.085Z,55.28
2023-05-05T09:27:48.887Z,55.48
2023-05-05T09:30:17.494Z,55.49
2023-05-05T09:32:52.157Z,55.79
2023-05-05T09:35:19.992Z,56.10
2023-05-05T09:37:46.825Z,56.13
2023-05-05T09:40:15.184Z,56.13
2023-05-05T09:42:41.922Z,55.84
2023-05-05T09:45:17.655Z,55.77
2023-05-05T09:47:46.025Z,55.75
2023-05-05T09:50:18.389Z,55.58
2023-05-05T09:53:14.685Z,55.83
2023-05-05T09:55:41.895Z,55.94
2023-05-05T09:58:23.887Z,55.76
2023-05-05T10:00:51.034Z,56.04
2023-05-05T10:03:18.004Z,56.10
2023-05-05T10:05:50.983Z,56.03
2023-05-05T10:08:19.884Z,55.62
2023-05-05T10:10:50.714Z,55.72
2023-05-05T10:13:19.615Z,55.70
2023-05-05T10:15:48.009Z,55.28
2023-05-05T10:18:15.878Z,55.43
2023-05-05T10:20:43.734Z,55.37
2023-05-05T10:23:12.651Z,55.26
2023-05-05T10:25:42.985Z,55.39
2023-05-05T10:28:12.145Z,55.26
2023-05-05T10:30:43.641Z,55.46
2023-05-05T10:33:31.045Z,55.31
2023-05-05T10:36:01.555Z,55.42
2023-05-05T10:38:30.261Z,55.31
2023-05-05T10:40:58.087Z,55.15
2023-05-05T10:43:24.924Z,55.22
2023-05-05T10:45:51.882Z,55.24
2023-05-05T10:48:30.395Z,55.02
2023-05-05T10:51:05.291Z,55.36
2023-05-05T10:53:46.723Z,55.42
2023-05-05T10:56:32.653Z,55.36
2023-05-05T10:59:00.595Z,55.38
2023-05-05T11:01:32.731Z,55.44
2023-05-05T11:04:18.513Z,55.31
2023-05-05T11:07:12.696Z,55.41
2023-05-05T11:09:58.381Z,55.05
2023-05-05T11:12:25.284Z,55.20
2023-05-05T11:15:33.427Z,55.36
2023-05-05T11:18:07.014Z,55.68
2023-05-05T11:20:40.281Z,55.44
2023-05-05T11:23:06.931Z,55.53
2023-05-05T11:25:37.371Z,55.75
2023-05-05T11:28:11.984Z,55.53
2023-05-05T11:30:57.892Z,55.44
2023-05-05T11:33:38.325Z,55.43
2023-05-05T11:36:09.371Z,55.57
2023-05-05T11:38:39.069Z,55.40
2023-05-05T11:41:12.505Z,55.09
2023-05-05T11:43:39.921Z,55.15
2023-05-05T11:46:13.554Z,54.91
2023-05-05T11:48:50.508Z,55.13
2023-05-05T11:51:19.443Z,55.02
2023-05-05T11:53:47.505Z,55.12
2023-05-05T11:56:19.084Z,55.00
2023-05-05T11:58:49.379Z,54.92
2023-05-05T12:01:16.267Z,54.63
2023-05-05T12:03:45.665Z,54.78
2023-05-05T12:06:13.102Z,54.86
2023-05-05T12:08:40.922Z,55.09
2023-05-05T12:11:09.384Z,54.92
2023-05-05T12:13:36.153Z,55.15
2023-05-05T12:16:16.040Z,55.23
2023-05-05T12:18:42.742Z,55.24
2023-05-05T12:21:19.604Z,55.05
2023-05-05T12:23:46.614Z,55.34
2023-05-05T12:26:26.569Z,55.23
2023-05-05T12:28:53.305Z,55.31
2023-05-05T12:31:20.140Z,55.28
2023-05-05T12:33:47.205Z,55.32
2023-05-05T12:36:14.425Z,55.56
2023-05-05T12:38:41.982Z,55.54
2023-05-05T12:41:08.590Z,55.69
2023-05-05T12:43:35.403Z,55.44
2023-05-05T12:46:12.264Z,55.73
2023-05-05T12:48:40.449Z,56.00
2023-05-05T12:51:23.128Z,55.97
2023-05-05T12:54:02.100Z,56.14
2023-05-05T12:56:29.920Z,56.06
2023-05-05T12:58:56.759Z,56.32
2023-05-05T13:01:23.552Z,56.09
2023-05-05T13:04:07.282Z,56.17
2023-05-05T13:06:33.954Z,56.41
2023-05-05T13:09:00.541Z,56.21
2023-05-05T13:11:27.260Z,56.51
2023-05-05T13:13:53.909Z,56.93
2023-05-05T13:16:20.847Z,56.67
2023-05-05T13:18:48.527Z,56.73
2023-05-05T13:21:15.262Z,56.73
2023-05-05T13:23:45.386Z,56.70
2023-05-05T13:26:12.723Z,56.83
2023-05-05T13:28:39.992Z,57.15
2023-05-05T13:31:08.068Z,57.26
2023-05-05T13:33:35.149Z,57.12
2023-05-05T13:36:02.431Z,57.10
2023-05-05T13:38:29.529Z,57.38
2023-05-05T13:40:56.076Z,57.41
2023-05-05T13:43:22.638Z,57.43
2023-05-05T13:45:49.205Z,57.34
2023-05-05T13:48:15.850Z,57.66
2023-05-05T13:50:42.437Z,57.53
2023-05-05T13:53:09.336Z,57.75
2023-05-05T13:55:35.960Z,58.01
2023-05-05T13:58:02.885Z,57.75
2023-05-05T14:00:29.492Z,58.07
2023-05-05T14:02:56.241Z,57.82
2023-05-05T14:05:23.229Z,57.97
2023-05-05T14:07:49.846Z,58.07
2023-05-05T14:10:16.648Z,58.12
2023-05-05T14:12:43.493Z,58.13
2023-05-05T14:15:10.393Z,58.29
2023-05-05T14:17:37.211Z,58.22
2023-05-05T14:20:04.207Z,58.28
2023-05-05T14:22:31.136Z,58.44
2023-05-05T14:24:57.851Z,58.60
2023-05-05T14:27:24.512Z,58.24
2023-05-05T14:29:51.033Z,58.30
2023-05-05T14:32:17.734Z,58.48
2023-05-05T14:34:45.207Z,58.74
2023-05-05T14:37:12.150Z,58.79
2023-05-05T14:39:38.789Z,58.80
2023-05-05T14:42:05.507Z,58.81
2023-05-05T14:44:33.265Z,59.01
2023-05-05T14:46:59.783Z,59.12
2023-05-05T14:49:26.368Z,58.80
2023-05-05T14:51:53.940Z,58.83
2023-05-05T14:54:27.845Z,58.98
2023-05-05T14:56:55.904Z,58.86
2023-05-05T14:59:22.482Z,58.88
2023-05-05T15:01:49.057Z,58.95
2023-05-05T15:04:16.151Z,58.88
2023-05-05T15:06:42.673Z,59.22
2023-05-05T15:09:09.263Z,59.16
2023-05-05T15:11:37.840Z,59.24
2023-05-05T15:14:04.390Z,59.23
2023-05-05T15:16:32.575Z,59.21
2023-05-05T15:19:00.337Z,59.40
2023-05-05T15:21:26.928Z,59.32
2023-05-05T15:23:53.436Z,59.43
2023-05-05T15:26:19.993Z,59.39
2023-05-05T15:28:48.272Z,59.30
2023-05-05T15:31:16.713Z,59.46
2023-05-05T15:33:45.268Z,59.32
2023-05-05T15:36:12.201Z,59.56
2023-05-05T15:38:42.646Z,59.54
2023-05-05T15:41:09.208Z,59.56
2023-05-05T15:43:35.875Z,59.71
2023-05-05T15:46:02.472Z,59.71
2023-05-05T15:48:28.981Z,59.67
2023-05-05T15:50:55.502Z,59.81
2023-05-05T15:53:22.053Z,59.81
2023-05-05T15:55:48.572Z,59.67
2023-05-05T15:58:15.119Z,59.59
2023-05-05T16:00:41.709Z,59.71
2023-05-05T16:03:08.433Z,59.64
2023-05-05T16:05:35.133Z,59.86
2023-05-05T16:08:01.704Z,59.72
2023-05-05T16:10:28.194Z,59.81
2023-05-05T16:12:54.700Z,59.66
2023-05-05T16:15:21.379Z,59.85
2023-05-05T16:17:47.964Z,59.89
2023-05-05T16:20:14.520Z,60.14
2023-05-05T16:22:41.129Z,60.15
2023-05-05T16:25:08.353Z,60.37
2023-05-05T16:27:35.057Z,60.31
2023-05-05T16:30:01.732Z,60.46
2023-05-05T16:32:28.376Z,60.52
2023-05-05T16:34:55.209Z,60.47
2023-05-05T16:37:21.806Z,60.45
2023-05-05T16:39:48.344Z,60.55
2023-05-05T16:42:14.890Z,60.59
2023-05-05T16:44:41.408Z,60.75
2023-05-05T16:47:08.093Z,60.74
2023-05-05T16:49:34.705Z,60.79
2023-05-05T16:52:01.257Z,61.14
2023-05-05T16:54:27.821Z,61.01
2023-05-05T16:56:54.911Z,61.30
2023-05-05T16:59:21.445Z,60.89
2023-05-05T17:01:48.041Z,60.99
2023-05-05T17:04:14.790Z,61.30
2023-05-05T17:06:41.342Z,61.59
2023-05-05T17:09:07.969Z,61.34
2023-05-05T17:11:34.617Z,61.50
2023-05-05T17:14:01.655Z,61.66
2023-05-05T17:16:28.192Z,61.90
2023-05-05T17:18:54.784Z,61.92
2023-05-05T17:21:21.495Z,62.12
2023-05-05T17:23:48.001Z,62.08
2023-05-05T17:26:14.634Z,62.28
2023-05-05T17:28:41.218Z,62.08
2023-05-05T17:31:07.929Z,62.02
2023-05-05T17:33:34.515Z,61.96
2023-05-05T17:36:01.023Z,61.74
2023-05-05T17:38:27.507Z,61.96
2023-05-05T17:40:54.144Z,61.91
2023-05-05T17:43:20.761Z,61.98
2023-05-05T17:45:47.452Z,62.23
2023-05-05T17:48:14.188Z,62.37
2023-05-05T17:50:43.199Z,62.41
2023-05-05T17:53:10.803Z,62.66
2023-05-05T17:55:37.475Z,62.73
2023-05-05T17:58:04.043Z,62.84
2023-05-05T18:00:30.666Z,63.06
2023-05-05T18:02:57.256Z,62.98
2023-05-05T18:05:23.757Z,63.10
2023-05-05T18:07:50.340Z,63.09
2023-05-05T18:10:17.013Z,62.86
2023-05-05T18:12:43.568Z,62.89
2023-05-05T18:15:10.929Z,63.08
2023-05-05T18:17:39.030Z,63.05
2023-05-05T18:20:07.122Z,63.15
2023-05-05T18:22:34.368Z,63.13
2023-05-05T18:25:01.119Z,63.43
2023-05-05T18:27:28.495Z,63.38
2023-05-05T18:29:55.334Z,63.48
2023-05-05T18:32:22.208Z,63.40
2023-05-05T18:34:48.797Z,63.43
2023-05-05T18:37:15.450Z,63.42
2023-05-05T18:39:43.910Z,63.40
2023-05-05T18:42:12.738Z,63.42
2023-05-05T18:44:39.406Z,63.57
2023-05-05T18:47:06.978Z,63.62
2023-05-05T18:49:33.963Z,63.74
2023-05-05T18:52:00.581Z,63.56
2023-05-05T18:54:27.136Z,63.71
2023-05-05T18:56:53.633Z,63.39
2023-05-05T18:59:20.190Z,63.38
2023-05-05T19:01:46.749Z,63.46
2023-05-05T19:04:26.681Z,63.78
2023-05-05T19:06:57.178Z,63.78
2023-05-05T19:09:23.739Z,64.15
2023-05-05T19:11:50.477Z,64.03
2023-05-05T19:14:17.751Z,63.94
2023-05-05T19:16:44.547Z,64.16
2023-05-05T19:19:11.172Z,63.98
2023-05-05T19:21:38.236Z,63.94
2023-05-05T19:24:06.701Z,63.98
2023-05-05T19:26:33.292Z,63.81
2023-05-05T19:28:59.847Z,63.81
2023-05-05T19:31:27.859Z,64.05
2023-05-05T19:34:02.452Z,63.95
2023-05-05T19:36:31.671Z,64.27
2023-05-05T19:39:00.472Z,64.39
2023-05-05T19:41:27.720Z,64.55
2023-05-05T19:43:54.346Z,65.07
2023-05-05T19:46:20.934Z,65.06
2023-05-05T19:48:47.906Z,65.29
2023-05-05T19:51:14.412Z,65.23
2023-05-05T19:53:42.884Z,65.54
2023-05-05T19:56:10.352Z,65.46
2023-05-05T19:59:12.197Z,65.24
2023-05-05T20:01:38.738Z,65.47
2023-05-05T20:04:05.434Z,65.31
2023-05-05T20:06:32.829Z,65.28
2023-05-05T20:09:00.359Z,65.01
2023-05-05T20:11:26.872Z,65.28
2023-05-05T20:13:53.523Z,65.42
2023-05-05T20:16:20.178Z,65.41
2023-05-05T20:18:46.830Z,65.38
2023-05-05T20:21:14.011Z,65.33
2023-05-05T20:23:42.702Z,65.55
2023-05-05T20:26:09.348Z,65.52
2023-05-05T20:28:35.984Z,65.48
2023-05-05T20:31:02.602Z,65.02
2023-05-05T20:33:29.229Z,65.07
2023-05-05T20:35:55.877Z,65.36
2023-05-05T20:38:22.545Z,64.96
2023-05-05T20:40:49.883Z,65.03
2023-05-05T20:43:16.654Z,64.85
2023-05-05T20:45:43.308Z,65.22
2023-05-05T20:48:11.587Z,65.44
2023-05-05T20:50:38.724Z,65.75
2023-05-05T20:53:07.970Z,65.57
2023-05-05T20:55:34.618Z,65.62
2023-05-05T20:58:01.179Z,65.40
2023-05-05T21:00:27.760Z,65.37
2023-05-05T21:02:54.457Z,65.64
2023-05-05T21:05:21.338Z,65.87
2023-05-05T21:07:47.854Z,66.23
2023-05-05T21:10:14.537Z,66.38
2023-05-05T21:12:41.728Z,66.16
2023-05-05T21:15:09.193Z,66.38
2023-05-05T21:17:36.319Z,66.33
2023-05-05T21:20:02.957Z,66.47
2023-05-05T21:22:29.629Z,66.47
2023-05-05T21:25:16.121Z,66.87
2023-05-05T21:27:42.796Z,66.99
2023-05-05T21:30:11.226Z,66.86
2023-05-05T21:32:39.096Z,67.34
2023-05-05T21:35:07.486Z,67.09
2023-05-05T21:37:34.217Z,67.52
2023-05-05T21:40:00.980Z,67.30
2023-05-05T21:42:30.232Z,67.44
2023-05-05T21:44:56.804Z,67.12
2023-05-05T21:47:23.531Z,67.24
2023-05-05T21:49:50.176Z,67.41
2023-05-05T21:52:17.160Z,67.32
2023-05-05T21:54:43.959Z,67.26
2023-05-05T21:57:10.618Z,67.19
2023-05-05T21:59:37.179Z,67.42
2023-05-05T22:02:03.695Z,67.04
2023-05-05T22:04:30.236Z,67.21
2023-05-05T22:06:56.775Z,67.31
2023-05-05T22:09:23.421Z,67.38
2023-05-05T22:11:50.755Z,67.34
2023-05-05T22:14:17.489Z,67.28
2023-05-05T22:16:44.281Z,67.33
2023-05-05T22:19:10.933Z,67.48
2023-05-05T22:21:37.472Z,67.54
2023-05-05T22:24:04.735Z,67.75
2023-05-05T22:26:31.318Z,67.97
2023-05-05T22:28:59.031Z,67.80
2023-05-05T22:31:25.821Z,68.23
2023-05-05T22:33:52.368Z,67.88
2023-05-05T22:36:18.882Z,67.78
2023-05-05T22:38:45.581Z,68.25
2023-05-05T22:41:12.512Z,68.03
2023-05-05T22:43:39.071Z,67.77
2023-05-05T22:46:05.864Z,67.94
2023-05-05T22:48:32.380Z,68.15
2023-05-05T22:50:59.958Z,67.83
2023-05-05T22:53:26.533Z,67.85
2023-05-05T22:55:53.069Z,67.77
2023-05-05T22:58:20.981Z,67.95
2023-05-05T23:00:47.525Z,67.96
2023-05-05T23:03:14.368Z,68.14
2023-05-05T23:05:41.003Z,67.90
2023-05-05T23:08:07.615Z,68.07
2023-05-05T23:10:34.073Z,67.99
2023-05-05T23:13:00.667Z,67.75
2023-05-05T23:15:27.234Z,68.13
2023-05-05T23:17:53.704Z,67.67
2023-05-05T23:20:20.534Z,68.01
2023-05-05T23:22:47.093Z,67.68
2023-05-05T23:25:13.662Z,68.03
2023-05-05T23:27:41.060Z,68.15
2023-05-05T23:30:08.977Z,68.16
2023-05-05T23:32:35.645Z,68.30
2023-05-05T23:35:02.262Z,68.43
2023-05-05T23:37:28.850Z,68.27
2023-05-05T23:39:56.670Z,68.67
2023-05-05T23:42:23.763Z,68.70
2023-05-05T23:44:50.335Z,68.60
2023-05-05T23:47:16.944Z,68.56
2023-05-05T23:49:43.487Z,68.33
2023-05-05T23:52:11.119Z,68.73
2023-05-05T23:54:37.692Z,68.47
2023-05-05T23:57:04.264Z,68.48
2023-05-05T23:59:30.768Z,68.46
